Arroyo, TX

10:56 AM CDT on May 27, 2015 (GMT -0500)
KNIGHTWOOD/WD5ADC | | Change Station
CLOSE
Current Station
Personal Weather Station
Location: Harlingen, TX
Elevation: 49 ft
Nearby Weather Stations

Elev 49 ft 26.22 °N, 97.69 °W | Updated 8 minutes ago

Mostly Cloudy
Mostly Cloudy
87.2 °F
Feels Like 100 °F
N
0.0
Wind Variable Wind from ESE
Gusts 3.0 mph

Today
High -- | Low -- °F
--% Chance of Precip.
Yesterday
High -- | Low -- °F
Precip. -- in
6:39 AM 8:16 PM
Waxing Gibbous, 68% visible
Pressure 30.00 in
Visibility 10.0 miles
Clouds Few 2400 ft
Scattered Clouds 2900 ft
Mostly Cloudy 3600 ft
Heat Index 100 °F
Dew Point 78 °F
Humidity 73%
Rainfall 0.00 in
Snow Depth Not available.
UV 3 out of 12
Pollen 6.50 out of 12
Air Quality Not available.
Flu Activity Sporadic
SPECI KHRL 271502Z 15014KT 10SM FEW024 SCT029 BKN036 29/24 A3000 RMK AO2 T02940244

More Conditions Fewer Conditions

Pressure 30.00 in
Visibility 10.0 miles
Clouds Few 2400 ft
Scattered Clouds 2900 ft
Mostly Cloudy 3600 ft
Heat Index 100 °F
Dew Point 78 °F
Humidity 73%
Rainfall 0.00 in
Snow Depth Not available.
UV 3 out of 12
Pollen 6.50 out of 12
Air Quality Not available.
Flu Activity Sporadic
SPECI KHRL 271502Z 15014KT 10SM FEW024 SCT029 BKN036 29/24 A3000 RMK AO2 T02940244

More Conditions Fewer Conditions

10-Day Weather Forecast

Almanac

Astronomy

May. 27, 2015 Rise Set
Actual Time
Civil Twilight
Nautical Twilight
Astronomical Twilight
Moon
Length of Visible Light
Length of Day
Tomorrow will be .
, % of the Moon is Illuminated

Today's Extremes

State Highs State Lows

Community

WunderPhotos

Upload Photos

1,824,699 photos uploaded!

WunderBlogs® & News

Nearby

Air Quality

  Air Quality AQ Index Pollutant
Not available.

Snow Depth

Station Depth Elevation

Earthquake Activity

City Distance Mag. Time & Date
Minimum magnitude displayed is 2.5.

Coastal Water Temperatures

Place Temperature

Stations

Nearby Weather Stations

Station Location Temp. Windchill Dew Point Humidity Wind Precip. Elev Updated Type